createdAt,value
2018-10-18T00:00:55.915Z,35.48
2018-10-18T00:03:24.088Z,37.88
2018-10-18T00:05:52.175Z,36.08
2018-10-18T00:08:20.250Z,37.78
2018-10-18T00:10:48.347Z,39.23
2018-10-18T00:13:16.915Z,41.05
2018-10-18T00:15:45.025Z,36.85
2018-10-18T00:18:13.202Z,41.28
2018-10-18T00:20:41.268Z,36.00
2018-10-18T00:23:09.406Z,41.15
2018-10-18T00:25:37.529Z,43.65
2018-10-18T00:28:05.673Z,42.17
2018-10-18T00:30:33.767Z,44.25
2018-10-18T00:33:01.896Z,44.58
2018-10-18T00:35:30.007Z,41.23
2018-10-18T00:37:58.150Z,36.45
2018-10-18T00:40:26.256Z,38.58
2018-10-18T00:42:54.372Z,36.55
2018-10-18T00:45:22.491Z,40.23
2018-10-18T00:47:50.611Z,41.88
2018-10-18T00:50:18.832Z,40.33
2018-10-18T00:55:21.533Z,43.68
2018-10-18T00:57:49.640Z,42.78
2018-10-18T01:00:17.879Z,43.85
2018-10-18T01:02:45.912Z,39.53
2018-10-18T01:05:14.028Z,39.23
2018-10-18T01:07:42.157Z,40.00
2018-10-18T01:10:10.272Z,39.42
2018-10-18T01:12:38.473Z,42.60
2018-10-18T01:15:06.872Z,42.20
2018-10-18T01:17:34.990Z,43.78
2018-10-18T01:20:03.181Z,40.15
2018-10-18T01:22:31.304Z,41.28
2018-10-18T01:24:59.421Z,38.40
2018-10-18T01:27:27.553Z,42.23
2018-10-18T01:29:55.711Z,42.53
2018-10-18T01:32:23.802Z,43.87
2018-10-18T01:34:51.929Z,44.95
2018-10-18T01:37:20.070Z,39.13
2018-10-18T01:39:48.188Z,45.70
2018-10-18T01:42:16.406Z,41.65
2018-10-18T01:44:44.437Z,37.10
2018-10-18T01:47:12.569Z,39.53
2018-10-18T01:49:40.676Z,42.33
2018-10-18T01:52:08.789Z,39.48
2018-10-18T01:54:36.914Z,37.85
2018-10-18T01:57:05.667Z,41.35
2018-10-18T01:59:33.791Z,38.48
2018-10-18T02:02:01.957Z,41.13
2018-10-18T02:04:30.069Z,40.03
2018-10-18T02:06:58.188Z,39.55
2018-10-18T02:09:26.299Z,38.95
2018-10-18T02:11:54.472Z,45.33
2018-10-18T02:14:22.584Z,39.00
2018-10-18T02:16:50.694Z,43.48
2018-10-18T02:19:18.932Z,40.60
2018-10-18T02:21:46.972Z,40.00
2018-10-18T02:24:15.120Z,40.10
2018-10-18T02:26:43.202Z,44.42
2018-10-18T02:29:11.291Z,38.80
2018-10-18T02:31:39.404Z,42.55
2018-10-18T02:34:07.528Z,41.25
2018-10-18T02:36:35.677Z,37.78
2018-10-18T02:39:05.591Z,43.87
2018-10-18T02:41:33.692Z,40.52
2018-10-18T02:44:01.816Z,43.23
2018-10-18T02:46:29.980Z,40.33
2018-10-18T02:48:58.085Z,39.35
2018-10-18T02:51:26.219Z,44.65
2018-10-18T02:53:54.427Z,45.70
2018-10-18T02:56:22.483Z,46.55
2018-10-18T02:58:50.615Z,48.50
2018-10-18T03:01:18.748Z,45.78
2018-10-18T03:03:46.864Z,47.00
2018-10-18T03:06:15.095Z,45.00
2018-10-18T03:08:43.147Z,44.45
2018-10-18T03:11:11.273Z,42.67
2018-10-18T03:13:39.469Z,42.20
2018-10-18T03:16:07.676Z,43.38
2018-10-18T03:18:35.836Z,40.48
2018-10-18T03:21:03.960Z,41.65
2018-10-18T03:23:32.076Z,47.30
2018-10-18T03:26:00.204Z,41.73
2018-10-18T03:28:28.307Z,45.50
2018-10-18T03:30:56.427Z,43.90
2018-10-18T03:33:24.585Z,44.88
2018-10-18T03:35:52.930Z,42.30
2018-10-18T03:38:21.021Z,46.70
2018-10-18T03:40:49.131Z,42.17
2018-10-18T03:43:17.260Z,40.67
2018-10-18T03:45:45.367Z,48.38
2018-10-18T03:48:13.512Z,44.18
2018-10-18T03:50:41.628Z,44.90
2018-10-18T03:53:09.868Z,47.80
2018-10-18T03:55:38.129Z,47.15
2018-10-18T03:58:06.603Z,43.78
2018-10-18T04:00:34.737Z,47.83
2018-10-18T04:03:02.849Z,48.80
2018-10-18T04:05:30.960Z,44.70
2018-10-18T04:07:59.060Z,46.37
2018-10-18T04:10:27.184Z,44.98
2018-10-18T04:12:55.429Z,50.12
2018-10-18T04:15:23.428Z,45.73
2018-10-18T04:17:51.568Z,42.62
2018-10-18T04:20:19.645Z,48.00
2018-10-18T04:22:47.755Z,44.27
2018-10-18T04:25:15.894Z,47.78
2018-10-18T04:27:44.009Z,43.38
2018-10-18T04:30:12.247Z,48.98
2018-10-18T04:32:40.296Z,49.00
2018-10-18T04:35:08.529Z,48.45
2018-10-18T04:37:36.960Z,50.73
2018-10-18T04:40:08.456Z,51.18
2018-10-18T04:42:36.802Z,49.88
2018-10-18T04:45:06.336Z,53.20
2018-10-18T04:47:34.524Z,52.30
2018-10-18T04:50:02.825Z,59.03
2018-10-18T04:52:30.957Z,61.00
2018-10-18T04:54:59.110Z,58.45
2018-10-18T04:57:28.596Z,57.35
2018-10-18T04:59:56.691Z,54.85
2018-10-18T05:02:25.417Z,55.00
2018-10-18T05:05:05.311Z,52.55
2018-10-18T05:07:33.440Z,54.58
2018-10-18T05:10:01.568Z,57.85
2018-10-18T05:12:29.745Z,55.50
2018-10-18T05:14:57.863Z,49.60
2018-10-18T05:17:25.963Z,60.65
2018-10-18T05:19:54.061Z,57.13
2018-10-18T05:22:22.188Z,59.40
2018-10-18T05:24:50.354Z,57.00
2018-10-18T05:27:18.435Z,56.53
2018-10-18T05:29:46.556Z,54.65
2018-10-18T05:32:14.696Z,54.03
2018-10-18T05:34:42.896Z,50.28
2018-10-18T05:37:11.123Z,47.98
2018-10-18T05:39:39.183Z,51.85
2018-10-18T05:42:07.357Z,50.60
2018-10-18T05:44:35.492Z,50.78
2018-10-18T05:47:03.636Z,48.58
2018-10-18T05:49:31.752Z,51.35
2018-10-18T05:51:59.869Z,55.25
2018-10-18T05:54:28.092Z,50.60
2018-10-18T05:56:56.641Z,47.40
2018-10-18T05:59:25.048Z,51.37
2018-10-18T06:01:53.272Z,52.40
2018-10-18T06:04:21.384Z,49.20
2018-10-18T06:06:49.500Z,52.25
2018-10-18T06:09:23.926Z,50.98
2018-10-18T06:11:52.036Z,52.23
2018-10-18T06:14:20.147Z,53.58
2018-10-18T06:16:48.288Z,49.15
2018-10-18T06:19:16.514Z,51.63
2018-10-18T06:21:44.502Z,52.85
2018-10-18T06:24:12.603Z,50.38
2018-10-18T06:26:40.696Z,52.43
2018-10-18T06:29:08.879Z,50.65
2018-10-18T06:31:36.951Z,52.00
2018-10-18T06:34:05.560Z,51.83
2018-10-18T06:36:33.755Z,49.10
2018-10-18T06:39:01.973Z,46.75
2018-10-18T06:41:30.004Z,47.98
2018-10-18T06:43:58.104Z,47.95
2018-10-18T06:46:26.198Z,49.45
2018-10-18T06:48:54.332Z,52.20
2018-10-18T06:51:22.412Z,49.18
2018-10-18T06:53:50.510Z,49.45
2018-10-18T06:56:18.639Z,47.98
2018-10-18T06:58:46.743Z,49.05
2018-10-18T07:01:14.852Z,47.35
2018-10-18T07:03:42.961Z,48.33
2018-10-18T07:06:11.161Z,45.63
2018-10-18T07:08:39.176Z,44.13
2018-10-18T07:11:07.601Z,48.75
2018-10-18T07:13:35.687Z,48.10
2018-10-18T07:16:03.844Z,47.38
2018-10-18T07:18:31.956Z,45.88
2018-10-18T07:21:00.087Z,44.27
2018-10-18T07:23:28.199Z,43.58
2018-10-18T07:25:56.333Z,43.05
2018-10-18T07:28:24.447Z,42.90
2018-10-18T07:30:52.569Z,43.38
2018-10-18T07:33:20.676Z,42.98
2018-10-18T07:35:48.783Z,41.35
2018-10-18T07:38:16.915Z,40.63
2018-10-18T07:40:45.040Z,40.10
2018-10-18T07:43:13.126Z,41.60
2018-10-18T07:45:41.227Z,40.55
2018-10-18T07:48:09.400Z,37.98
2018-10-18T07:50:37.449Z,40.15
2018-10-18T07:53:05.609Z,44.05
2018-10-18T07:55:33.698Z,46.48
2018-10-18T07:58:01.795Z,43.00
2018-10-18T08:00:29.944Z,41.85
2018-10-18T08:02:57.991Z,40.88
2018-10-18T08:05:26.116Z,39.90
2018-10-18T08:07:54.227Z,38.67
2018-10-18T08:10:22.378Z,37.95
2018-10-18T08:12:50.575Z,36.13
2018-10-18T08:15:18.683Z,34.50
2018-10-18T08:17:46.842Z,56.10
2018-10-18T08:20:15.206Z,53.63
2018-10-18T08:22:43.719Z,54.17
2018-10-18T08:25:11.828Z,57.57
2018-10-18T08:27:39.843Z,50.70
2018-10-18T08:30:10.448Z,54.77
2018-10-18T08:32:38.553Z,51.00
2018-10-18T08:35:07.622Z,52.17
2018-10-18T08:37:35.730Z,54.37
2018-10-18T08:40:03.943Z,50.80
2018-10-18T08:42:32.040Z,56.63
2018-10-18T08:45:00.145Z,55.97
2018-10-18T08:47:28.236Z,53.47
2018-10-18T08:49:56.344Z,59.23
2018-10-18T08:52:24.426Z,51.90
2018-10-18T08:54:52.519Z,49.60
2018-10-18T08:57:20.609Z,52.00
2018-10-18T08:59:48.717Z,55.30
2018-10-18T09:02:16.824Z,56.70
2018-10-18T09:04:45.060Z,54.77
2018-10-18T09:07:13.256Z,55.93
2018-10-18T09:09:41.461Z,59.20
2018-10-18T09:12:09.529Z,61.37
2018-10-18T09:14:37.623Z,69.43
2018-10-18T09:17:05.708Z,59.97
2018-10-18T09:19:33.823Z,65.57
2018-10-18T09:22:01.942Z,61.17
2018-10-18T09:24:30.029Z,72.97
2018-10-18T09:26:58.118Z,71.80
2018-10-18T09:29:26.717Z,74.43
2018-10-18T09:31:54.809Z,72.73
2018-10-18T09:34:22.887Z,80.60
2018-10-18T09:36:51.061Z,71.53
2018-10-18T09:39:19.140Z,70.73
2018-10-18T09:41:47.504Z,81.00
2018-10-18T09:44:15.625Z,77.47
2018-10-18T09:46:43.725Z,73.27
2018-10-18T09:49:11.830Z,71.17
2018-10-18T09:51:39.895Z,75.23
2018-10-18T09:54:07.979Z,64.47
2018-10-18T09:56:36.068Z,74.83
2018-10-18T09:59:04.227Z,72.93
2018-10-18T10:01:37.756Z,69.80
2018-10-18T10:04:05.884Z,80.80
2018-10-18T10:06:33.957Z,83.77
2018-10-18T10:09:02.065Z,78.07
2018-10-18T10:11:30.184Z,84.17
2018-10-18T10:13:58.241Z,75.90
2018-10-18T10:16:26.319Z,84.67
2018-10-18T10:18:54.445Z,73.43
2018-10-18T10:21:22.568Z,74.57
2018-10-18T10:23:50.705Z,78.17
2018-10-18T10:26:18.814Z,78.70
2018-10-18T10:28:46.924Z,79.07
2018-10-18T10:31:15.046Z,74.80
2018-10-18T10:33:43.127Z,66.77
2018-10-18T10:36:11.203Z,73.67
2018-10-18T10:38:39.412Z,72.80
2018-10-18T10:41:07.834Z,77.03
2018-10-18T10:43:35.926Z,73.57
2018-10-18T10:46:04.149Z,71.27
2018-10-18T10:48:32.215Z,70.17
2018-10-18T10:51:00.319Z,65.20
2018-10-18T10:53:28.420Z,71.43
2018-10-18T10:55:56.567Z,75.63
2018-10-18T10:58:24.609Z,71.13
2018-10-18T11:01:11.227Z,64.90
2018-10-18T11:03:40.410Z,58.90
2018-10-18T11:06:08.509Z,62.57
2018-10-18T11:08:36.584Z,60.50
2018-10-18T11:11:05.270Z,62.93
2018-10-18T11:13:33.358Z,55.77
2018-10-18T11:16:02.415Z,63.00
2018-10-18T11:18:31.403Z,60.70
2018-10-18T11:20:59.531Z,65.57
2018-10-18T11:23:27.629Z,60.50
2018-10-18T11:25:55.724Z,66.20
2018-10-18T11:28:23.863Z,67.87
2018-10-18T11:30:51.986Z,69.93
2018-10-18T11:33:20.088Z,73.90
2018-10-18T11:35:48.195Z,62.57
2018-10-18T11:38:16.436Z,60.07
2018-10-18T11:40:44.492Z,62.73
2018-10-18T11:43:12.853Z,62.80
2018-10-18T11:45:41.133Z,62.93
2018-10-18T11:48:10.774Z,57.40
2018-10-18T11:50:39.561Z,59.90
2018-10-18T11:53:07.652Z,55.10
2018-10-18T11:55:35.968Z,62.20
2018-10-18T11:58:04.180Z,64.67
2018-10-18T12:00:32.308Z,59.33
2018-10-18T12:03:00.427Z,60.37
2018-10-18T12:05:28.508Z,67.40
2018-10-18T12:07:56.693Z,66.90
2018-10-18T12:10:24.747Z,64.70
2018-10-18T12:12:52.885Z,56.53
2018-10-18T12:15:21.035Z,62.13
2018-10-18T12:17:49.126Z,56.60
2018-10-18T12:20:17.893Z,58.00
2018-10-18T12:22:45.961Z,57.37
2018-10-18T12:25:14.500Z,62.03
2018-10-18T12:27:42.957Z,57.93
2018-10-18T12:30:11.644Z,56.30
2018-10-18T12:32:40.009Z,60.77
2018-10-18T12:35:08.462Z,61.90
2018-10-18T12:37:36.676Z,57.27
2018-10-18T12:40:06.150Z,61.20
2018-10-18T12:42:34.676Z,62.90
2018-10-18T12:45:02.779Z,62.20
2018-10-18T12:47:30.926Z,68.40
2018-10-18T12:49:59.040Z,68.73
2018-10-18T12:52:27.122Z,64.10
2018-10-18T12:54:55.224Z,64.73
2018-10-18T12:57:23.352Z,68.73
2018-10-18T12:59:51.458Z,65.03
2018-10-18T13:02:19.602Z,64.13
2018-10-18T13:04:47.685Z,67.00
2018-10-18T13:07:15.787Z,64.67
2018-10-18T13:09:43.924Z,65.40
2018-10-18T13:12:12.067Z,67.33
2018-10-18T13:14:40.150Z,69.63
2018-10-18T13:17:08.256Z,64.37
2018-10-18T13:19:36.347Z,73.53
2018-10-18T13:22:04.448Z,65.73
2018-10-18T13:24:32.544Z,70.13
2018-10-18T13:27:00.695Z,69.17
2018-10-18T13:29:28.781Z,61.77
2018-10-18T13:31:56.940Z,63.33
2018-10-18T13:34:25.016Z,63.40
2018-10-18T13:36:53.100Z,65.27
2018-10-18T13:39:21.230Z,65.77
2018-10-18T13:41:49.383Z,65.83
2018-10-18T13:44:17.812Z,66.47
2018-10-18T13:46:45.787Z,59.17
2018-10-18T13:49:13.909Z,62.17
2018-10-18T13:51:42.015Z,58.27
2018-10-18T13:54:10.211Z,55.97
2018-10-18T13:56:38.252Z,56.67
2018-10-18T13:59:16.532Z,57.43
2018-10-18T14:01:44.532Z,61.67
2018-10-18T14:04:12.855Z,65.23
2018-10-18T14:06:40.946Z,63.33
2018-10-18T14:09:09.057Z,64.00
2018-10-18T14:11:37.176Z,71.93
2018-10-18T14:14:05.344Z,63.67
2018-10-18T14:16:33.438Z,68.00
2018-10-18T14:19:01.537Z,68.90
2018-10-18T14:21:29.632Z,64.87
2018-10-18T14:23:57.724Z,66.53
2018-10-18T14:26:25.828Z,69.10
2018-10-18T14:28:53.930Z,71.40
2018-10-18T14:31:22.157Z,65.30
2018-10-18T14:33:50.289Z,72.57
2018-10-18T14:36:18.404Z,73.13
2018-10-18T14:38:46.630Z,81.90
2018-10-18T14:41:14.721Z,73.67
2018-10-18T14:43:42.778Z,74.17
2018-10-18T14:46:10.880Z,79.43
2018-10-18T14:48:38.968Z,80.40
2018-10-18T14:51:07.095Z,82.27
2018-10-18T14:53:35.183Z,74.53
2018-10-18T14:56:03.357Z,84.20
2018-10-18T14:58:31.420Z,80.90
2018-10-18T15:00:59.512Z,85.80
2018-10-18T15:03:27.599Z,75.03
2018-10-18T15:05:55.794Z,83.43
2018-10-18T15:08:23.872Z,89.20
2018-10-18T15:10:52.044Z,80.83
2018-10-18T15:13:20.204Z,80.47
2018-10-18T15:15:48.322Z,83.53
2018-10-18T15:18:16.524Z,75.73
2018-10-18T15:20:44.620Z,84.30
2018-10-18T15:23:12.777Z,80.43
2018-10-18T15:25:40.961Z,88.23
2018-10-18T15:28:08.928Z,79.93
2018-10-18T15:30:37.119Z,83.83
2018-10-18T15:33:05.327Z,78.60
2018-10-18T15:35:33.456Z,86.40
2018-10-18T15:38:01.774Z,84.52
2018-10-18T15:40:29.840Z,87.60
2018-10-18T15:42:58.084Z,79.07
2018-10-18T15:45:26.188Z,81.80
2018-10-18T15:47:54.428Z,84.00
2018-10-18T15:50:22.830Z,78.00
2018-10-18T15:52:50.986Z,73.20
2018-10-18T15:55:19.144Z,83.12
2018-10-18T15:57:47.253Z,90.95
2018-10-18T16:00:15.557Z,78.00
2018-10-18T16:02:43.487Z,80.40
2018-10-18T16:05:11.851Z,97.57
2018-10-18T16:07:39.865Z,91.90
2018-10-18T16:10:08.508Z,101.67
2018-10-18T16:12:36.977Z,96.95
2018-10-18T16:15:06.105Z,101.72
2018-10-18T16:17:34.904Z,99.77
2018-10-18T16:20:02.999Z,106.87
2018-10-18T16:22:32.528Z,107.05
2018-10-18T16:25:00.713Z,95.32
2018-10-18T16:27:28.828Z,112.83
2018-10-18T16:29:57.001Z,110.85
2018-10-18T16:32:25.151Z,116.42
2018-10-18T16:34:53.368Z,105.25
2018-10-18T16:37:24.739Z,108.17
2018-10-18T16:39:57.156Z,114.85
2018-10-18T16:42:25.323Z,97.15
2018-10-18T16:44:53.447Z,109.65
2018-10-18T16:47:23.571Z,114.90
2018-10-18T16:50:01.282Z,111.37
2018-10-18T16:52:30.540Z,106.72
2018-10-18T16:55:00.249Z,113.72
2018-10-18T16:57:31.499Z,115.45
2018-10-18T17:00:00.509Z,120.10
2018-10-18T17:02:29.036Z,112.50
2018-10-18T17:05:19.264Z,106.07
2018-10-18T17:07:47.569Z,110.95
2018-10-18T17:10:18.541Z,104.60
2018-10-18T17:12:46.632Z,103.92
2018-10-18T17:15:15.401Z,103.32
2018-10-18T17:17:43.601Z,113.68
2018-10-18T17:20:11.785Z,115.00
2018-10-18T17:22:40.475Z,116.35
2018-10-18T17:25:10.907Z,108.15
2018-10-18T17:27:39.207Z,103.67
2018-10-18T17:30:07.358Z,113.32
2018-10-18T17:32:35.577Z,108.70
2018-10-18T17:35:03.709Z,101.12
2018-10-18T17:37:31.947Z,115.20
2018-10-18T17:40:03.386Z,117.33
2018-10-18T17:42:31.635Z,97.35
2018-10-18T17:44:59.914Z,115.17
2018-10-18T17:47:28.634Z,112.60
2018-10-18T17:50:01.951Z,101.65
2018-10-18T17:52:35.777Z,105.78
2018-10-18T17:55:13.123Z,112.75
2018-10-18T17:57:42.656Z,101.18
2018-10-18T18:00:12.661Z,95.55
2018-10-18T18:02:40.965Z,108.25
2018-10-18T18:05:13.959Z,107.35
2018-10-18T18:07:46.428Z,103.72
2018-10-18T18:10:15.914Z,111.97
2018-10-18T18:12:46.084Z,102.15
2018-10-18T18:15:16.965Z,94.77
2018-10-18T18:17:45.150Z,105.00
2018-10-18T18:20:16.213Z,103.80
2018-10-18T18:22:46.163Z,103.20
2018-10-18T18:25:14.236Z,103.62
2018-10-18T18:27:42.892Z,99.30
2018-10-18T18:30:12.659Z,99.55
2018-10-18T18:32:41.708Z,98.47
2018-10-18T18:35:09.830Z,97.67
2018-10-18T18:37:38.421Z,91.53
2018-10-18T18:40:07.895Z,95.12
2018-10-18T18:42:36.020Z,94.03
2018-10-18T18:45:10.594Z,102.55
2018-10-18T18:47:41.041Z,87.90
2018-10-18T18:50:12.632Z,100.72
2018-10-18T18:52:41.277Z,77.22
2018-10-18T18:55:10.215Z,96.60
2018-10-18T18:57:38.649Z,98.27
2018-10-18T19:00:10.514Z,91.80
2018-10-18T19:02:38.619Z,100.60
2018-10-18T19:05:10.346Z,95.87
2018-10-18T19:07:39.305Z,87.37
2018-10-18T19:10:07.744Z,91.35
2018-10-18T19:12:39.604Z,86.35
2018-10-18T19:15:15.214Z,96.05
2018-10-18T19:17:43.829Z,87.33
2018-10-18T19:20:12.061Z,78.72
2018-10-18T19:22:40.332Z,82.05
2018-10-18T19:25:08.509Z,81.78
2018-10-18T19:27:37.066Z,91.85
2018-10-18T19:30:06.600Z,98.78
2018-10-18T19:32:34.714Z,89.40
2018-10-18T19:35:02.835Z,93.75
2018-10-18T19:37:31.041Z,82.88
2018-10-18T19:39:59.184Z,98.95
2018-10-18T19:42:27.299Z,93.78
2018-10-18T19:44:55.417Z,86.63
2018-10-18T19:47:23.576Z,92.17
2018-10-18T19:49:51.918Z,91.42
2018-10-18T19:52:20.196Z,86.00
2018-10-18T19:54:48.171Z,103.40
2018-10-18T19:57:16.298Z,105.72
2018-10-18T19:59:44.472Z,104.55
2018-10-18T20:02:12.619Z,91.35
2018-10-18T20:04:40.800Z,103.60
2018-10-18T20:07:08.943Z,112.83
2018-10-18T20:09:37.145Z,96.65
2018-10-18T20:12:05.359Z,113.35
2018-10-18T20:14:33.543Z,110.83
2018-10-18T20:17:01.684Z,105.37
2018-10-18T20:19:29.831Z,97.17
2018-10-18T20:21:58.032Z,108.85
2018-10-18T20:24:26.238Z,97.47
2018-10-18T20:26:54.404Z,110.32
2018-10-18T20:29:22.574Z,116.40
2018-10-18T20:31:50.696Z,94.62
2018-10-18T20:34:18.835Z,99.42
2018-10-18T20:36:46.949Z,94.77
2018-10-18T20:39:15.154Z,92.27
2018-10-18T20:41:43.181Z,104.70
2018-10-18T20:44:11.307Z,131.50
2018-10-18T20:46:39.518Z,112.77
2018-10-18T20:49:07.619Z,135.78
2018-10-18T20:51:35.738Z,125.67
2018-10-18T20:54:03.967Z,115.05
2018-10-18T20:56:32.149Z,95.95
2018-10-18T20:59:00.284Z,106.40
2018-10-18T21:01:28.456Z,131.78
2018-10-18T21:03:56.588Z,120.05
2018-10-18T21:06:24.771Z,101.10
2018-10-18T21:08:52.889Z,94.32
2018-10-18T21:11:20.994Z,106.97
2018-10-18T21:13:49.129Z,103.90
2018-10-18T21:16:17.438Z,125.05
2018-10-18T21:18:45.778Z,100.70
2018-10-18T21:21:14.216Z,132.72
2018-10-18T21:23:42.360Z,125.58
2018-10-18T21:26:11.681Z,124.40
2018-10-18T21:28:41.758Z,140.22
2018-10-18T21:31:10.338Z,140.62
2018-10-18T21:33:45.058Z,127.40
2018-10-18T21:37:38.914Z,138.32
2018-10-18T21:40:07.383Z,140.77
2018-10-18T21:42:38.785Z,144.70
2018-10-18T21:45:07.431Z,154.60
2018-10-18T21:47:35.909Z,106.32
2018-10-18T21:50:04.200Z,145.15
2018-10-18T21:52:32.829Z,145.90
2018-10-18T21:55:01.145Z,135.03
2018-10-18T21:57:29.362Z,154.12
2018-10-18T21:59:57.633Z,143.70
2018-10-18T22:02:26.083Z,112.90
2018-10-18T22:05:01.022Z,106.67
2018-10-18T22:07:29.312Z,135.88
2018-10-18T22:09:58.154Z,126.45
2018-10-18T22:12:26.424Z,153.87
2018-10-18T22:14:54.671Z,131.93
2018-10-18T22:17:22.971Z,138.00
2018-10-18T22:19:51.841Z,124.22
2018-10-18T22:22:20.141Z,122.07
2018-10-18T22:24:48.461Z,100.47
2018-10-18T22:27:16.667Z,128.20
2018-10-18T22:29:44.699Z,98.17
2018-10-18T22:32:12.841Z,96.82
2018-10-18T22:34:40.954Z,111.32
2018-10-18T22:37:09.075Z,85.45
2018-10-18T22:39:37.240Z,115.20
2018-10-18T22:42:06.152Z,111.50
2018-10-18T22:44:34.329Z,100.42
2018-10-18T22:47:02.456Z,90.25
2018-10-18T22:49:30.574Z,77.45
2018-10-18T22:51:58.679Z,68.85
2018-10-18T22:54:26.834Z,96.32
2018-10-18T22:56:54.981Z,104.70
2018-10-18T22:59:23.101Z,74.85
2018-10-18T23:01:51.241Z,78.22
2018-10-18T23:04:19.417Z,57.48
2018-10-18T23:06:47.532Z,62.60
2018-10-18T23:09:15.785Z,64.07
2018-10-18T23:11:43.796Z,67.58
2018-10-18T23:14:11.913Z,49.55
2018-10-18T23:16:40.053Z,76.47
2018-10-18T23:19:09.069Z,66.45
2018-10-18T23:21:37.205Z,68.37
2018-10-18T23:24:05.763Z,56.15
2018-10-18T23:26:33.897Z,52.13
2018-10-18T23:29:02.034Z,55.38
2018-10-18T23:31:30.214Z,65.92
2018-10-18T23:33:58.312Z,66.92
2018-10-18T23:36:26.451Z,70.35
2018-10-18T23:38:54.607Z,72.17
2018-10-18T23:41:22.704Z,70.40
2018-10-18T23:43:50.831Z,46.60
2018-10-18T23:46:18.981Z,85.38
2018-10-18T23:48:47.091Z,78.28
2018-10-18T23:51:15.348Z,56.05
2018-10-18T23:53:43.316Z,57.25
2018-10-18T23:56:11.444Z,55.48
2018-10-18T23:58:39.579Z,72.05
